createdAt,value
2018-03-25T00:01:00.453Z,1013.28
2018-03-25T00:02:01.082Z,1013.35
2018-03-25T00:03:01.653Z,1013.16
2018-03-25T00:04:02.229Z,1013.12
2018-03-25T00:05:02.847Z,1012.91
2018-03-25T00:06:03.422Z,1012.88
2018-03-25T00:07:04.044Z,1012.75
2018-03-25T00:08:04.616Z,1012.70
2018-03-25T00:09:05.193Z,1012.68
2018-03-25T00:10:05.767Z,1012.78
2018-03-25T00:11:06.380Z,1012.73
2018-03-25T00:12:06.955Z,1012.77
2018-03-25T00:13:07.527Z,1012.60
2018-03-25T00:14:08.099Z,1012.62
2018-03-25T00:15:08.674Z,1012.67
2018-03-25T00:16:09.252Z,1012.69
2018-03-25T00:17:09.913Z,1012.73
2018-03-25T00:18:10.484Z,1012.77
2018-03-25T00:19:11.056Z,1012.66
2018-03-25T00:20:11.631Z,1012.69
2018-03-25T00:21:12.255Z,1012.71
2018-03-25T00:22:12.832Z,1012.76
2018-03-25T00:23:13.404Z,1012.78
2018-03-25T00:24:13.978Z,1012.75
2018-03-25T00:25:14.646Z,1012.68
2018-03-25T00:26:15.218Z,1012.66
2018-03-25T00:27:15.793Z,1012.55
2018-03-25T00:28:16.366Z,1012.52
2018-03-25T00:29:16.939Z,1012.43
2018-03-25T00:31:27.988Z,1012.44
2018-03-25T00:32:28.564Z,1012.33
2018-03-25T00:33:29.237Z,1012.27
2018-03-25T00:34:29.812Z,1012.34
2018-03-25T00:35:30.484Z,1012.36
2018-03-25T00:36:31.058Z,1012.26
2018-03-25T00:37:31.631Z,1012.12
2018-03-25T00:38:32.253Z,1012.16
2018-03-25T00:39:32.826Z,1012.04
2018-03-25T00:40:38.452Z,1012.11
2018-03-25T00:41:39.026Z,1012.11
2018-03-25T00:42:39.599Z,1012.03
2018-03-25T00:43:40.171Z,1011.95
2018-03-25T00:44:40.743Z,1011.79
2018-03-25T00:45:41.319Z,1011.72
2018-03-25T00:46:41.890Z,1011.70
2018-03-25T00:47:42.461Z,1011.74
2018-03-25T00:48:43.038Z,1011.71
2018-03-25T00:49:43.659Z,1011.74
2018-03-25T00:50:44.233Z,1011.69
2018-03-25T00:51:44.806Z,1011.64
2018-03-25T00:52:45.380Z,1011.70
2018-03-25T00:53:46.004Z,1011.59
2018-03-25T00:54:46.578Z,1011.63
2018-03-25T00:55:47.150Z,1011.57
2018-03-25T00:56:47.725Z,1011.55
2018-03-25T00:57:48.296Z,1011.58
2018-03-25T00:58:48.871Z,1011.61
2018-03-25T00:59:49.444Z,1011.63
2018-03-25T01:00:50.067Z,1011.56
2018-03-25T01:01:50.640Z,1011.59
2018-03-25T01:02:51.212Z,1011.65
2018-03-25T01:03:51.785Z,1011.59
2018-03-25T01:04:52.359Z,1011.60
2018-03-25T01:05:52.932Z,1011.52
2018-03-25T01:06:53.507Z,1011.49
2018-03-25T01:07:54.130Z,1011.47
2018-03-25T01:08:54.703Z,1011.37
2018-03-25T01:09:55.326Z,1011.34
2018-03-25T01:10:55.899Z,1011.38
2018-03-25T01:11:56.524Z,1011.36
2018-03-25T01:12:57.098Z,1011.27
2018-03-25T01:13:57.714Z,1011.37
2018-03-25T01:14:58.288Z,1011.39
2018-03-25T01:15:58.862Z,1011.41
2018-03-25T01:16:59.438Z,1011.46
2018-03-25T01:18:00.010Z,1011.50
2018-03-25T01:19:00.581Z,1011.51
2018-03-25T01:20:01.158Z,1011.65
2018-03-25T01:21:01.726Z,1011.61
2018-03-25T01:22:02.343Z,1011.67
2018-03-25T01:23:02.914Z,1011.69
2018-03-25T01:24:08.492Z,1011.78
2018-03-25T01:25:09.111Z,1011.81
2018-03-25T01:26:09.682Z,1011.89
2018-03-25T01:27:10.255Z,1011.86
2018-03-25T01:28:10.879Z,1011.88
2018-03-25T01:29:11.502Z,1011.88
2018-03-25T01:30:12.075Z,1011.85
2018-03-25T01:31:12.646Z,1011.78
2018-03-25T01:32:13.220Z,1011.76
2018-03-25T01:33:13.797Z,1011.69
2018-03-25T01:34:14.368Z,1011.68
2018-03-25T01:35:14.939Z,1011.64
2018-03-25T01:36:15.511Z,1011.68
2018-03-25T01:37:16.085Z,1011.61
2018-03-25T01:38:16.656Z,1011.54
2018-03-25T01:39:17.229Z,1011.54
2018-03-25T01:40:17.805Z,1011.56
2018-03-25T01:41:18.378Z,1011.48
2018-03-25T01:42:18.949Z,1011.53
2018-03-25T01:43:19.524Z,1011.57
2018-03-25T01:44:20.148Z,1011.56
2018-03-25T01:45:20.723Z,1011.59
2018-03-25T01:46:21.347Z,1011.54
2018-03-25T01:47:21.971Z,1011.46
2018-03-25T01:48:22.541Z,1011.37
2018-03-25T01:49:23.114Z,1011.42
2018-03-25T01:50:23.687Z,1011.40
2018-03-25T01:51:24.304Z,1011.40
2018-03-25T01:52:24.877Z,1011.38
2018-03-25T01:53:25.451Z,1011.37
2018-03-25T01:54:26.065Z,1011.40
2018-03-25T01:55:26.639Z,1011.37
2018-03-25T01:56:27.212Z,1011.38
2018-03-25T01:57:27.784Z,1011.37
2018-03-25T01:58:28.360Z,1011.31
2018-03-25T01:59:28.931Z,1011.30
2018-03-25T02:00:29.551Z,1011.26
2018-03-25T02:01:30.278Z,1011.28
2018-03-25T02:02:30.847Z,1011.27
2018-03-25T02:03:31.469Z,1011.34
2018-03-25T02:04:32.043Z,1011.32
2018-03-25T02:05:32.616Z,1011.31
2018-03-25T02:06:33.188Z,1011.24
2018-03-25T02:07:33.761Z,1011.22
2018-03-25T02:08:34.378Z,1011.11
2018-03-25T02:09:34.952Z,1011.08
2018-03-25T02:10:35.529Z,1011.13
2018-03-25T02:11:36.101Z,1011.15
2018-03-25T02:12:36.669Z,1011.17
2018-03-25T02:13:37.242Z,1011.15
2018-03-25T02:14:37.813Z,1011.19
2018-03-25T02:15:38.388Z,1011.27
2018-03-25T02:16:38.961Z,1011.26
2018-03-25T02:17:39.583Z,1011.27
2018-03-25T02:18:40.205Z,1011.26
2018-03-25T02:19:40.777Z,1011.33
2018-03-25T02:20:41.400Z,1011.33
2018-03-25T02:21:41.975Z,1011.37
2018-03-25T02:22:42.590Z,1011.28
2018-03-25T02:23:43.164Z,1011.21
2018-03-25T02:24:43.735Z,1011.30
2018-03-25T02:25:44.352Z,1011.27
2018-03-25T02:26:44.884Z,1011.24
2018-03-25T02:27:45.458Z,1011.20
2018-03-25T02:28:46.032Z,1011.28
2018-03-25T02:29:46.604Z,1011.33
2018-03-25T02:30:47.184Z,1011.33
2018-03-25T02:31:47.752Z,1011.33
2018-03-25T02:32:48.325Z,1011.49
2018-03-25T02:33:48.898Z,1011.39
2018-03-25T02:34:49.472Z,1011.39
2018-03-25T02:35:50.095Z,1011.35
2018-03-25T02:36:50.719Z,1011.41
2018-03-25T02:37:51.295Z,1011.41
2018-03-25T02:38:51.867Z,1011.37
2018-03-25T02:39:52.439Z,1011.39
2018-03-25T02:40:53.010Z,1011.34
2018-03-25T02:41:53.590Z,1011.26
2018-03-25T02:42:54.205Z,1011.29
2018-03-25T02:43:54.778Z,1011.32
2018-03-25T02:44:55.349Z,1011.32
2018-03-25T02:45:55.923Z,1011.28
2018-03-25T02:46:56.494Z,1011.26
2018-03-25T02:47:57.065Z,1011.34
2018-03-25T02:48:57.638Z,1011.32
2018-03-25T02:49:58.256Z,1011.38
2018-03-25T02:50:58.783Z,1011.37
2018-03-25T02:51:59.356Z,1011.44
2018-03-25T02:52:59.928Z,1011.50
2018-03-25T02:54:00.550Z,1011.49
2018-03-25T02:55:01.123Z,1011.45
2018-03-25T02:56:01.694Z,1011.50
2018-03-25T02:57:02.269Z,1011.43
2018-03-25T02:58:02.840Z,1011.53
2018-03-25T02:59:03.563Z,1011.54
2018-03-25T03:00:04.136Z,1011.50
2018-03-25T03:01:04.710Z,1011.45
2018-03-25T03:02:05.284Z,1011.40
2018-03-25T03:03:05.897Z,1011.34
2018-03-25T03:04:11.523Z,1011.37
2018-03-25T03:05:12.098Z,1011.41
2018-03-25T03:06:12.671Z,1011.38
2018-03-25T03:07:13.243Z,1011.37
2018-03-25T03:08:13.819Z,1011.20
2018-03-25T03:09:14.438Z,1011.26
2018-03-25T03:10:15.016Z,1011.21
2018-03-25T03:11:15.633Z,1011.26
2018-03-25T03:12:16.206Z,1011.23
2018-03-25T03:13:16.779Z,1011.20
2018-03-25T03:14:17.499Z,1011.20
2018-03-25T03:15:18.071Z,1011.26
2018-03-25T03:16:18.643Z,1011.36
2018-03-25T03:17:19.217Z,1011.27
2018-03-25T03:18:19.791Z,1011.38
2018-03-25T03:19:20.365Z,1011.35
2018-03-25T03:20:20.949Z,1011.45
2018-03-25T03:21:21.507Z,1011.31
2018-03-25T03:22:22.084Z,1011.40
2018-03-25T03:23:22.655Z,1011.43
2018-03-25T03:24:23.228Z,1011.43
2018-03-25T03:25:23.801Z,1011.46
2018-03-25T03:26:24.424Z,1011.50
2018-03-25T03:27:25.048Z,1011.52
2018-03-25T03:28:25.621Z,1011.46
2018-03-25T03:29:26.196Z,1011.51
2018-03-25T03:30:26.770Z,1011.43
2018-03-25T03:31:27.390Z,1011.54
2018-03-25T03:32:28.022Z,1011.48
2018-03-25T03:33:28.584Z,1011.44
2018-03-25T03:34:29.156Z,1011.47
2018-03-25T03:35:29.728Z,1011.48
2018-03-25T03:36:30.300Z,1011.49
2018-03-25T03:37:30.873Z,1011.57
2018-03-25T03:38:31.447Z,1011.56
2018-03-25T03:39:32.023Z,1011.57
2018-03-25T03:40:32.592Z,1011.55
2018-03-25T03:41:33.163Z,1011.53
2018-03-25T03:42:33.736Z,1011.53
2018-03-25T03:43:34.310Z,1011.63
2018-03-25T03:44:34.933Z,1011.57
2018-03-25T03:45:35.504Z,1011.57
2018-03-25T03:46:36.079Z,1011.54
2018-03-25T03:47:36.700Z,1011.54
2018-03-25T03:48:37.274Z,1011.65
2018-03-25T03:49:37.896Z,1011.61
2018-03-25T03:50:38.469Z,1011.54
2018-03-25T03:51:39.040Z,1011.55
2018-03-25T03:52:39.613Z,1011.59
2018-03-25T03:53:40.187Z,1011.57
2018-03-25T03:54:40.760Z,1011.60
2018-03-25T03:55:41.332Z,1011.56
2018-03-25T03:56:41.904Z,1011.58
2018-03-25T03:57:42.531Z,1011.59
2018-03-25T03:58:43.144Z,1011.50
2018-03-25T03:59:43.718Z,1011.53
2018-03-25T04:00:44.340Z,1011.49
2018-03-25T04:01:44.911Z,1011.59
2018-03-25T04:02:45.483Z,1011.64
2018-03-25T04:03:46.056Z,1011.63
2018-03-25T04:04:46.681Z,1011.61
2018-03-25T04:05:47.254Z,1011.63
2018-03-25T04:06:47.833Z,1011.65
2018-03-25T04:07:48.449Z,1011.62
2018-03-25T04:08:49.020Z,1011.69
2018-03-25T04:09:49.593Z,1011.62
2018-03-25T04:10:50.167Z,1011.66
2018-03-25T04:11:50.738Z,1011.70
2018-03-25T04:12:51.308Z,1011.72
2018-03-25T04:13:51.884Z,1011.72
2018-03-25T04:14:52.504Z,1011.82
2018-03-25T04:15:53.070Z,1011.83
2018-03-25T04:16:53.641Z,1011.77
2018-03-25T04:17:54.264Z,1011.77
2018-03-25T04:18:54.836Z,1011.78
2018-03-25T04:19:55.456Z,1011.79
2018-03-25T04:20:56.028Z,1011.81
2018-03-25T04:21:56.601Z,1011.82
2018-03-25T04:22:57.175Z,1011.79
2018-03-25T04:23:57.797Z,1011.79
2018-03-25T04:24:58.376Z,1011.78
2018-03-25T04:25:58.994Z,1011.80
2018-03-25T04:26:59.568Z,1011.79
2018-03-25T04:28:00.141Z,1011.80
2018-03-25T04:29:00.711Z,1011.86
2018-03-25T04:30:01.286Z,1011.86
2018-03-25T04:31:01.858Z,1011.82
2018-03-25T04:32:02.428Z,1011.94
2018-03-25T04:33:03.004Z,1011.95
2018-03-25T04:34:03.577Z,1011.97
2018-03-25T04:35:04.201Z,1012.00
2018-03-25T04:36:04.774Z,1012.04
2018-03-25T04:37:05.347Z,1012.08
2018-03-25T04:38:05.918Z,1012.10
2018-03-25T04:39:06.541Z,1012.10
2018-03-25T04:40:07.113Z,1012.13
2018-03-25T04:41:07.685Z,1012.15
2018-03-25T04:42:08.307Z,1012.20
2018-03-25T04:43:08.879Z,1012.18
2018-03-25T04:44:09.456Z,1012.21
2018-03-25T04:45:10.027Z,1012.11
2018-03-25T04:46:10.597Z,1012.17
2018-03-25T04:47:11.167Z,1012.21
2018-03-25T04:48:11.739Z,1012.29
2018-03-25T04:49:12.310Z,1012.34
2018-03-25T04:50:12.933Z,1012.29
2018-03-25T04:51:13.548Z,1012.38
2018-03-25T04:52:14.120Z,1012.42
2018-03-25T04:53:14.694Z,1012.34
2018-03-25T04:54:15.266Z,1012.37
2018-03-25T04:55:15.890Z,1012.47
2018-03-25T04:56:16.464Z,1012.55
2018-03-25T04:57:17.034Z,1012.40
2018-03-25T04:58:17.655Z,1012.45
2018-03-25T04:59:18.228Z,1012.57
2018-03-25T05:00:18.801Z,1012.52
2018-03-25T05:01:19.373Z,1012.60
2018-03-25T05:02:19.945Z,1012.60
2018-03-25T05:03:20.516Z,1012.53
2018-03-25T05:04:21.089Z,1012.55
2018-03-25T05:05:21.660Z,1012.57
2018-03-25T05:06:22.236Z,1012.57
2018-03-25T05:07:22.804Z,1012.59
2018-03-25T05:08:23.378Z,1012.70
2018-03-25T05:09:23.948Z,1012.70
2018-03-25T05:10:24.571Z,1012.65
2018-03-25T05:11:25.144Z,1012.64
2018-03-25T05:12:25.866Z,1012.72
2018-03-25T05:13:26.497Z,1012.72
2018-03-25T05:14:27.065Z,1012.74
2018-03-25T05:15:27.638Z,1012.85
2018-03-25T05:16:28.214Z,1012.95
2018-03-25T05:17:28.783Z,1012.94
2018-03-25T05:18:29.404Z,1012.96
2018-03-25T05:19:29.976Z,1013.05
2018-03-25T05:20:30.549Z,1013.01
2018-03-25T05:21:31.120Z,1013.02
2018-03-25T05:22:31.693Z,1013.07
2018-03-25T05:23:32.266Z,1013.00
2018-03-25T05:24:32.838Z,1013.09
2018-03-25T05:25:33.410Z,1013.02
2018-03-25T05:26:34.024Z,1013.08
2018-03-25T05:27:34.596Z,1013.11
2018-03-25T05:28:35.219Z,1013.19
2018-03-25T05:29:35.839Z,1013.12
2018-03-25T05:30:36.514Z,1013.32
2018-03-25T05:31:37.137Z,1013.20
2018-03-25T05:32:37.709Z,1013.23
2018-03-25T05:33:38.329Z,1013.26
2018-03-25T05:34:38.954Z,1013.29
2018-03-25T05:35:39.528Z,1013.26
2018-03-25T05:36:40.101Z,1013.25
2018-03-25T05:37:40.675Z,1013.24
2018-03-25T05:38:41.247Z,1013.30
2018-03-25T05:39:41.819Z,1013.28
2018-03-25T05:40:42.393Z,1013.29
2018-03-25T05:41:42.965Z,1013.26
2018-03-25T05:42:43.536Z,1013.28
2018-03-25T05:43:44.108Z,1013.37
2018-03-25T05:44:44.681Z,1013.38
2018-03-25T05:45:45.255Z,1013.44
2018-03-25T05:46:45.874Z,1013.41
2018-03-25T05:47:46.487Z,1013.45
2018-03-25T05:48:47.060Z,1013.49
2018-03-25T05:49:47.683Z,1013.56
2018-03-25T05:50:48.410Z,1013.53
2018-03-25T05:51:48.978Z,1013.62
2018-03-25T05:52:49.549Z,1013.70
2018-03-25T05:53:50.120Z,1013.66
2018-03-25T05:54:50.842Z,1013.71
2018-03-25T05:55:51.419Z,1013.67
2018-03-25T05:56:51.985Z,1013.73
2018-03-25T05:57:52.558Z,1013.72
2018-03-25T05:58:53.131Z,1013.64
2018-03-25T05:59:53.702Z,1013.69
2018-03-25T06:00:54.274Z,1013.73
2018-03-25T06:01:54.848Z,1013.66
2018-03-25T06:02:55.420Z,1013.68
2018-03-25T06:03:55.992Z,1013.75
2018-03-25T06:04:56.565Z,1013.72
2018-03-25T06:05:57.290Z,1013.79
2018-03-25T06:06:57.904Z,1013.80
2018-03-25T06:07:58.475Z,1013.88
2018-03-25T06:08:59.099Z,1013.84
2018-03-25T06:09:59.724Z,1013.83
2018-03-25T06:11:00.292Z,1013.93
2018-03-25T06:12:00.864Z,1013.95
2018-03-25T06:13:01.438Z,1013.96
2018-03-25T06:14:02.009Z,1013.90
2018-03-25T06:15:02.632Z,1013.99
2018-03-25T06:16:03.227Z,1013.98
2018-03-25T06:17:03.774Z,1014.04
2018-03-25T06:18:04.398Z,1014.06
2018-03-25T06:19:04.970Z,1014.01
2018-03-25T06:20:05.541Z,1014.06
2018-03-25T06:21:06.121Z,1014.13
2018-03-25T06:22:06.686Z,1014.05
2018-03-25T06:23:07.259Z,1014.17
2018-03-25T06:24:07.830Z,1014.15
2018-03-25T06:25:08.455Z,1014.16
2018-03-25T06:26:09.067Z,1014.19
2018-03-25T06:27:09.639Z,1014.25
2018-03-25T06:28:10.262Z,1014.25
2018-03-25T06:29:10.885Z,1014.30
2018-03-25T06:30:11.461Z,1014.26
2018-03-25T06:31:12.028Z,1014.25
2018-03-25T06:32:12.601Z,1014.31
2018-03-25T06:33:13.172Z,1014.33
2018-03-25T06:34:13.744Z,1014.36
2018-03-25T06:35:14.316Z,1014.42
2018-03-25T06:36:14.888Z,1014.47
2018-03-25T06:37:15.461Z,1014.52
2018-03-25T06:38:16.061Z,1014.39
2018-03-25T06:39:16.605Z,1014.45
2018-03-25T06:40:17.215Z,1014.46
2018-03-25T06:41:17.788Z,1014.48
2018-03-25T06:42:18.360Z,1014.55
2018-03-25T06:43:18.932Z,1014.63
2018-03-25T06:44:19.505Z,1014.55
2018-03-25T06:45:20.127Z,1014.61
2018-03-25T06:46:20.754Z,1014.65
2018-03-25T06:47:21.326Z,1014.64
2018-03-25T06:48:21.900Z,1014.75
2018-03-25T06:49:22.564Z,1014.77
2018-03-25T06:50:23.137Z,1014.78
2018-03-25T06:51:23.708Z,1014.86
2018-03-25T06:52:24.277Z,1014.84
2018-03-25T06:53:24.849Z,1014.83
2018-03-25T06:54:25.424Z,1014.80
2018-03-25T06:55:25.992Z,1014.81
2018-03-25T06:56:26.564Z,1014.89
2018-03-25T06:57:27.137Z,1014.89
2018-03-25T06:58:27.708Z,1014.93
2018-03-25T06:59:28.283Z,1014.88
2018-03-25T07:00:28.854Z,1014.86
2018-03-25T07:01:29.426Z,1014.88
2018-03-25T07:02:30.039Z,1014.92
2018-03-25T07:03:30.613Z,1014.92
2018-03-25T07:04:31.234Z,1014.97
2018-03-25T07:05:31.856Z,1015.03
2018-03-25T07:06:32.430Z,1015.03
2018-03-25T07:07:33.000Z,1015.08
2018-03-25T07:08:33.630Z,1015.07
2018-03-25T07:09:34.144Z,1015.11
2018-03-25T07:10:34.867Z,1015.14
2018-03-25T07:11:35.441Z,1015.07
2018-03-25T07:12:36.011Z,1015.20
2018-03-25T07:13:36.585Z,1015.24
2018-03-25T07:14:37.196Z,1015.31
2018-03-25T07:15:37.767Z,1015.30
2018-03-25T07:16:38.339Z,1015.33
2018-03-25T07:17:38.911Z,1015.30
2018-03-25T07:18:39.485Z,1015.33
2018-03-25T07:19:57.833Z,1015.37
2018-03-25T07:20:58.412Z,1015.35
2018-03-25T07:21:58.992Z,1015.41
2018-03-25T07:22:59.772Z,1015.39
2018-03-25T07:24:00.354Z,1015.49
2018-03-25T07:25:00.928Z,1015.48
2018-03-25T07:26:01.507Z,1015.56
2018-03-25T07:27:02.135Z,1015.66
2018-03-25T07:28:02.764Z,1015.72
2018-03-25T07:29:03.342Z,1015.71
2018-03-25T07:30:03.921Z,1015.77
2018-03-25T07:31:04.497Z,1015.75
2018-03-25T07:32:05.082Z,1015.75
2018-03-25T07:33:05.698Z,1015.79
2018-03-25T07:34:06.276Z,1015.84
2018-03-25T07:35:06.852Z,1015.95
2018-03-25T07:36:07.430Z,1015.82
2018-03-25T07:37:08.006Z,1015.94
2018-03-25T07:38:08.582Z,1015.94
2018-03-25T07:39:09.158Z,1015.95
2018-03-25T07:40:09.734Z,1015.95
2018-03-25T07:41:10.310Z,1016.00
2018-03-25T07:42:10.978Z,1016.03
2018-03-25T07:43:11.555Z,1015.97
2018-03-25T07:44:12.133Z,1016.11
2018-03-25T07:45:12.710Z,1016.07
2018-03-25T07:46:13.288Z,1016.15
2018-03-25T07:47:13.915Z,1016.19
2018-03-25T07:48:14.494Z,1016.12
2018-03-25T07:49:15.114Z,1016.17
2018-03-25T07:50:15.708Z,1016.27
2018-03-25T07:51:16.268Z,1016.17
2018-03-25T07:52:16.850Z,1016.21
2018-03-25T07:53:17.427Z,1016.20
2018-03-25T07:54:18.006Z,1016.22
2018-03-25T07:55:18.584Z,1016.25
2018-03-25T07:56:19.213Z,1016.29
2018-03-25T07:57:19.788Z,1016.22
2018-03-25T07:58:20.421Z,1016.29
2018-03-25T07:59:20.993Z,1016.24
2018-03-25T08:00:21.571Z,1016.33
2018-03-25T08:01:22.187Z,1016.33
2018-03-25T08:02:22.814Z,1016.38
2018-03-25T08:03:23.390Z,1016.45
2018-03-25T08:04:23.971Z,1016.45
2018-03-25T08:05:24.591Z,1016.53
2018-03-25T08:06:25.167Z,1016.61
2018-03-25T08:07:25.742Z,1016.61
2018-03-25T08:08:26.318Z,1016.57
2018-03-25T08:09:26.895Z,1016.62
2018-03-25T08:10:27.470Z,1016.68
2018-03-25T08:11:28.056Z,1016.65
2018-03-25T08:12:28.665Z,1016.67
2018-03-25T08:13:29.282Z,1016.69
2018-03-25T08:14:29.858Z,1016.72
2018-03-25T08:15:30.435Z,1016.75
2018-03-25T08:16:31.011Z,1016.70
2018-03-25T08:17:31.640Z,1016.79
2018-03-25T08:18:32.266Z,1016.72
2018-03-25T08:19:32.843Z,1016.74
2018-03-25T08:20:33.473Z,1016.74
2018-03-25T08:21:34.137Z,1016.71
2018-03-25T08:22:34.663Z,1016.67
2018-03-25T08:23:35.239Z,1016.67
2018-03-25T08:24:35.814Z,1016.77
2018-03-25T08:25:36.392Z,1016.71
2018-03-25T08:26:36.970Z,1016.75
2018-03-25T08:27:37.590Z,1016.69
2018-03-25T08:28:38.175Z,1016.83
2018-03-25T08:29:38.746Z,1016.72
2018-03-25T08:30:39.323Z,1016.77
2018-03-25T08:31:39.897Z,1016.79
2018-03-25T08:32:40.528Z,1016.85
2018-03-25T08:33:41.146Z,1016.82
2018-03-25T08:34:41.722Z,1016.95
2018-03-25T08:35:42.299Z,1016.85
2018-03-25T08:36:42.925Z,1016.93
2018-03-25T08:37:43.503Z,1016.94
2018-03-25T08:38:44.080Z,1016.86
2018-03-25T08:39:44.655Z,1016.94
2018-03-25T08:40:45.233Z,1016.92
2018-03-25T08:41:45.859Z,1016.91
2018-03-25T08:42:46.434Z,1017.02
2018-03-25T08:43:47.010Z,1016.96
2018-03-25T08:44:47.588Z,1017.06
2018-03-25T08:45:48.212Z,1017.02
2018-03-25T08:46:48.787Z,1017.01
2018-03-25T08:47:49.362Z,1017.08
2018-03-25T08:48:49.937Z,1017.03
2018-03-25T08:49:50.511Z,1017.07
2018-03-25T08:50:51.137Z,1017.08
2018-03-25T08:51:51.715Z,1017.09
2018-03-25T08:52:52.297Z,1017.12
2018-03-25T08:53:52.867Z,1017.11
2018-03-25T08:54:53.445Z,1017.15
2018-03-25T08:55:54.071Z,1017.21
2018-03-25T08:56:54.646Z,1017.17
2018-03-25T08:57:55.224Z,1017.17
2018-03-25T08:58:55.803Z,1017.16
2018-03-25T08:59:56.382Z,1017.22
2018-03-25T09:00:57.005Z,1017.27
2018-03-25T09:01:57.586Z,1017.25
2018-03-25T09:02:58.198Z,1017.26
2018-03-25T09:03:58.803Z,1017.20
2018-03-25T09:04:59.354Z,1017.22
2018-03-25T09:05:59.980Z,1017.26
2018-03-25T09:07:00.555Z,1017.28
2018-03-25T09:08:01.133Z,1017.39
2018-03-25T09:09:01.709Z,1017.39
2018-03-25T09:10:02.288Z,1017.38
2018-03-25T09:11:02.865Z,1017.33
2018-03-25T09:12:03.491Z,1017.43
2018-03-25T09:13:04.067Z,1017.45
2018-03-25T09:14:04.642Z,1017.49
2018-03-25T09:15:05.220Z,1017.54
2018-03-25T09:16:05.797Z,1017.56
2018-03-25T09:17:06.374Z,1017.55
2018-03-25T09:18:06.951Z,1017.50
2018-03-25T09:19:07.528Z,1017.62
2018-03-25T09:20:08.104Z,1017.65
2018-03-25T09:21:08.728Z,1017.68
2018-03-25T09:22:09.313Z,1017.66
2018-03-25T09:23:09.931Z,1017.71
2018-03-25T09:24:10.507Z,1017.74
2018-03-25T09:25:11.082Z,1017.73
2018-03-25T09:26:11.657Z,1017.77
2018-03-25T09:27:12.274Z,1017.76
2018-03-25T09:28:12.900Z,1017.85
2018-03-25T09:29:13.526Z,1017.79
2018-03-25T09:30:14.110Z,1017.88
2018-03-25T09:31:14.720Z,1017.84
2018-03-25T09:32:15.342Z,1017.84
2018-03-25T09:33:15.915Z,1017.88
2018-03-25T09:34:16.491Z,1017.92
2018-03-25T09:35:17.069Z,1017.87
2018-03-25T09:36:17.646Z,1017.89
2018-03-25T09:37:18.251Z,1017.91
2018-03-25T09:38:18.799Z,1017.90
2018-03-25T09:39:19.423Z,1017.99
2018-03-25T09:40:20.001Z,1017.98
2018-03-25T09:41:20.728Z,1017.91
2018-03-25T09:42:21.305Z,1017.97
2018-03-25T09:43:21.881Z,1018.01
2018-03-25T09:44:22.510Z,1018.00
2018-03-25T09:45:23.086Z,1018.02
2018-03-25T09:46:23.662Z,1017.99
2018-03-25T09:47:24.241Z,1018.05
2018-03-25T09:48:24.817Z,1018.05
2018-03-25T09:49:25.395Z,1018.05
2018-03-25T09:50:25.968Z,1018.07
2018-03-25T09:51:26.554Z,1018.03
2018-03-25T09:52:27.121Z,1018.06
2018-03-25T09:53:27.748Z,1018.07
2018-03-25T09:54:28.328Z,1018.07
2018-03-25T09:55:28.900Z,1018.10
2018-03-25T09:56:29.480Z,1018.09
2018-03-25T09:57:30.055Z,1018.14
2018-03-25T09:58:30.729Z,1018.12
2018-03-25T09:59:31.312Z,1018.09
2018-03-25T10:00:31.884Z,1018.16
2018-03-25T10:01:32.461Z,1018.17
2018-03-25T10:02:33.038Z,1018.12
2018-03-25T10:03:33.616Z,1018.15
2018-03-25T10:04:34.203Z,1018.09
2018-03-25T10:05:34.764Z,1018.16
2018-03-25T10:06:35.341Z,1018.22
2018-03-25T10:07:35.918Z,1018.22
2018-03-25T10:08:36.537Z,1018.22
2018-03-25T10:09:37.135Z,1018.22
2018-03-25T10:10:37.690Z,1018.27
2018-03-25T10:11:38.263Z,1018.27
2018-03-25T10:12:38.842Z,1018.29
2018-03-25T10:13:39.422Z,1018.21
2018-03-25T10:14:40.053Z,1018.26
2018-03-25T10:15:40.682Z,1018.32
2018-03-25T10:16:41.368Z,1018.39
2018-03-25T10:17:41.896Z,1018.30
2018-03-25T10:18:42.481Z,1018.40
2018-03-25T10:19:43.061Z,1018.33
2018-03-25T10:20:43.644Z,1018.41
2018-03-25T10:21:44.223Z,1018.43
2018-03-25T10:22:44.804Z,1018.53
2018-03-25T10:23:45.387Z,1018.54
2018-03-25T10:24:45.966Z,1018.50
2018-03-25T10:25:46.566Z,1018.53
2018-03-25T10:26:47.135Z,1018.49
2018-03-25T10:27:47.712Z,1018.45
2018-03-25T10:28:48.292Z,1018.58
2018-03-25T10:29:48.876Z,1018.60
2018-03-25T10:30:49.509Z,1018.63
2018-03-25T10:31:50.141Z,1018.69
2018-03-25T10:32:50.772Z,1018.65
2018-03-25T10:33:51.356Z,1018.70
2018-03-25T10:34:51.964Z,1018.65
2018-03-25T10:35:52.524Z,1018.65
2018-03-25T10:36:53.103Z,1018.64
2018-03-25T10:37:53.684Z,1018.67
2018-03-25T10:38:54.265Z,1018.64
2018-03-25T10:39:54.851Z,1018.68
2018-03-25T10:40:55.431Z,1018.66
2018-03-25T10:41:56.017Z,1018.70
2018-03-25T10:42:56.598Z,1018.69
2018-03-25T10:43:57.182Z,1018.69
2018-03-25T10:44:57.806Z,1018.76
2018-03-25T10:45:58.389Z,1018.86
2018-03-25T10:46:58.971Z,1018.85
2018-03-25T10:47:59.705Z,1018.88
2018-03-25T10:49:00.289Z,1018.93
2018-03-25T10:50:00.876Z,1018.94
2018-03-25T10:51:01.654Z,1018.94
2018-03-25T10:52:02.280Z,1018.97
2018-03-25T10:53:02.865Z,1019.01
2018-03-25T10:54:03.450Z,1018.92
2018-03-25T10:55:04.034Z,1018.92
2018-03-25T10:56:04.619Z,1018.99
2018-03-25T10:57:05.205Z,1018.93
2018-03-25T10:58:05.791Z,1019.01
2018-03-25T10:59:06.375Z,1019.04
2018-03-25T11:00:07.012Z,1018.98
2018-03-25T11:01:07.602Z,1018.97
2018-03-25T11:02:08.187Z,1018.99
2018-03-25T11:03:08.775Z,1019.04
2018-03-25T11:04:09.414Z,1018.98
2018-03-25T11:05:10.004Z,1019.05
2018-03-25T11:06:10.591Z,1019.13
2018-03-25T11:07:11.182Z,1019.09
2018-03-25T11:08:11.766Z,1019.06
2018-03-25T11:09:12.357Z,1019.08
2018-03-25T11:10:12.944Z,1019.11
2018-03-25T11:11:13.533Z,1019.10
2018-03-25T11:12:14.126Z,1019.23
2018-03-25T11:13:14.713Z,1019.23
2018-03-25T11:14:15.305Z,1019.18
2018-03-25T11:15:15.893Z,1019.15
2018-03-25T11:16:16.634Z,1019.28
2018-03-25T11:17:17.265Z,1019.21
2018-03-25T11:18:17.817Z,1019.29
2018-03-25T11:19:18.411Z,1019.27
2018-03-25T11:20:19.054Z,1019.31
2018-03-25T11:21:19.644Z,1019.35
2018-03-25T11:22:20.237Z,1019.31
2018-03-25T11:23:21.833Z,1019.19
2018-03-25T11:24:22.477Z,1019.36
2018-03-25T11:28:27.811Z,1019.38
2018-03-25T11:29:28.407Z,1019.35
2018-03-25T11:30:29.050Z,1019.40
2018-03-25T11:31:29.696Z,1019.39
2018-03-25T11:32:30.291Z,1019.39
2018-03-25T11:33:30.885Z,1019.39
2018-03-25T11:34:31.478Z,1019.43
2018-03-25T11:35:32.073Z,1019.32
2018-03-25T11:36:32.666Z,1019.43
2018-03-25T11:37:33.514Z,1019.52
2018-03-25T11:38:34.110Z,1019.58
2018-03-25T11:39:47.455Z,1019.56
2018-03-25T11:40:48.050Z,1019.52
2018-03-25T11:41:48.645Z,1019.61
2018-03-25T11:43:50.825Z,1019.59
2018-03-25T11:44:51.421Z,1019.69
2018-03-25T11:45:52.011Z,1019.65
2018-03-25T11:46:52.657Z,1019.63
2018-03-25T11:47:53.255Z,1019.67
2018-03-25T11:48:53.902Z,1019.71
2018-03-25T11:49:54.498Z,1019.73
2018-03-25T11:50:55.095Z,1019.72
2018-03-25T11:52:57.279Z,1019.60
2018-03-25T11:53:57.866Z,1019.72
2018-03-25T11:54:58.458Z,1019.71
2018-03-25T11:55:59.099Z,1019.73
2018-03-25T11:56:59.691Z,1019.75
2018-03-25T11:58:00.284Z,1019.78
2018-03-25T11:59:00.877Z,1019.70
2018-03-25T12:00:01.471Z,1019.67
2018-03-25T12:01:02.063Z,1019.66
2018-03-25T12:02:02.657Z,1019.61
2018-03-25T12:03:03.253Z,1019.65
2018-03-25T12:04:03.899Z,1019.80
2018-03-25T12:05:04.490Z,1019.75
2018-03-25T12:06:05.090Z,1019.79
2018-03-25T12:07:05.743Z,1019.75
2018-03-25T12:08:06.384Z,1019.81
2018-03-25T12:09:06.986Z,1019.77
2018-03-25T12:10:07.584Z,1019.68
2018-03-25T12:11:08.200Z,1019.81
2018-03-25T12:12:08.783Z,1019.75
2018-03-25T12:13:09.432Z,1019.79
2018-03-25T12:14:10.050Z,1019.77
2018-03-25T12:15:10.684Z,1019.78
2018-03-25T12:16:11.284Z,1019.76
2018-03-25T12:17:11.887Z,1019.84
2018-03-25T12:18:12.484Z,1019.76
2018-03-25T12:19:13.084Z,1019.81
2018-03-25T12:20:13.682Z,1019.91